createdAt,value
2023-03-06T00:00:56.314Z,32.17
2023-03-06T00:03:25.511Z,31.85
2023-03-06T00:05:56.708Z,27.73
2023-03-06T00:08:25.690Z,31.05
2023-03-06T00:10:53.570Z,27.75
2023-03-06T00:13:20.996Z,18.98
2023-03-06T00:15:48.818Z,21.85
2023-03-06T00:18:16.191Z,24.08
2023-03-06T00:20:44.598Z,24.08
2023-03-06T00:23:12.329Z,23.55
2023-03-06T00:25:46.379Z,27.15
2023-03-06T00:28:15.127Z,24.63
2023-03-06T00:30:44.004Z,32.55
2023-03-06T00:33:11.728Z,24.03
2023-03-06T00:35:40.194Z,26.70
2023-03-06T00:38:09.369Z,27.77
2023-03-06T00:40:36.641Z,31.55
2023-03-06T00:43:03.835Z,34.53
2023-03-06T00:45:31.253Z,26.50
2023-03-06T00:47:58.602Z,26.90
2023-03-06T00:50:26.029Z,29.42
2023-03-06T00:52:53.691Z,37.15
2023-03-06T00:55:21.128Z,28.83
2023-03-06T00:57:48.572Z,25.38
2023-03-06T01:00:16.237Z,29.95
2023-03-06T01:02:43.484Z,41.25
2023-03-06T01:05:13.825Z,43.17
2023-03-06T01:07:41.483Z,36.00
2023-03-06T01:10:10.119Z,32.88
2023-03-06T01:12:37.276Z,38.13
2023-03-06T01:15:06.337Z,39.13
2023-03-06T01:17:34.969Z,30.67
2023-03-06T01:20:04.614Z,33.60
2023-03-06T01:22:31.791Z,30.47
2023-03-06T01:24:59.894Z,31.45
2023-03-06T01:27:27.090Z,34.17
2023-03-06T01:29:54.330Z,36.15
2023-03-06T01:32:21.996Z,24.88
2023-03-06T01:34:49.921Z,24.77
2023-03-06T01:37:17.202Z,25.77
2023-03-06T01:39:44.566Z,27.60
2023-03-06T01:42:11.792Z,31.33
2023-03-06T01:45:08.897Z,22.15
2023-03-06T01:47:36.325Z,19.52
2023-03-06T01:50:06.489Z,20.25
2023-03-06T01:52:41.233Z,22.02
2023-03-06T01:55:15.689Z,26.90
2023-03-06T01:57:47.357Z,25.98
2023-03-06T02:00:20.051Z,40.20
2023-03-06T02:02:55.193Z,45.40
2023-03-06T02:05:23.001Z,33.67
2023-03-06T02:07:51.031Z,36.25
2023-03-06T02:10:19.585Z,33.72
2023-03-06T02:12:48.847Z,27.20
2023-03-06T02:15:20.164Z,29.38
2023-03-06T02:17:49.700Z,22.50
2023-03-06T02:20:37.688Z,25.83
2023-03-06T02:23:06.730Z,30.38
2023-03-06T02:25:45.239Z,36.45
2023-03-06T02:28:17.900Z,33.08
2023-03-06T02:30:47.742Z,28.90
2023-03-06T02:33:18.395Z,27.73
2023-03-06T02:36:01.509Z,16.17
2023-03-06T02:38:36.230Z,16.88
2023-03-06T02:41:07.178Z,15.88
2023-03-06T02:43:38.913Z,19.20
2023-03-06T02:46:06.662Z,14.65
2023-03-06T02:48:34.596Z,10.73
2023-03-06T02:51:01.906Z,18.13
2023-03-06T02:53:29.146Z,15.95
2023-03-06T02:55:59.446Z,16.05
2023-03-06T02:58:26.642Z,16.80
2023-03-06T03:00:54.053Z,13.15
2023-03-06T03:03:22.146Z,14.88
2023-03-06T03:05:49.492Z,17.95
2023-03-06T03:08:29.583Z,12.45
2023-03-06T03:11:01.011Z,17.05
2023-03-06T03:13:32.603Z,20.92
2023-03-06T03:16:08.154Z,24.30
2023-03-06T03:18:36.037Z,26.25
2023-03-06T03:21:11.797Z,21.02
2023-03-06T03:23:39.311Z,22.77
2023-03-06T03:26:12.836Z,21.55
2023-03-06T03:28:44.224Z,14.55
2023-03-06T03:31:14.073Z,30.40
2023-03-06T03:33:41.451Z,22.58
2023-03-06T03:36:09.418Z,20.58
2023-03-06T03:38:40.492Z,16.35
2023-03-06T03:41:07.738Z,18.23
2023-03-06T03:43:35.370Z,19.10
2023-03-06T03:46:02.601Z,16.63
2023-03-06T03:48:29.799Z,17.70
2023-03-06T03:51:10.469Z,17.60
2023-03-06T03:53:41.736Z,24.83
2023-03-06T03:56:11.464Z,26.30
2023-03-06T03:58:46.065Z,32.15
2023-03-06T04:01:13.531Z,20.85
2023-03-06T04:03:40.872Z,19.70
2023-03-06T04:06:09.848Z,17.13
2023-03-06T04:08:37.074Z,25.52
2023-03-06T04:11:04.603Z,26.98
2023-03-06T04:13:32.741Z,19.42
2023-03-06T04:16:00.208Z,19.80
2023-03-06T04:18:29.678Z,16.98
2023-03-06T04:21:01.048Z,22.98
2023-03-06T04:23:28.347Z,21.00
2023-03-06T04:25:55.737Z,19.38
2023-03-06T04:28:23.644Z,12.13
2023-03-06T04:30:51.381Z,21.83
2023-03-06T04:33:20.496Z,25.42
2023-03-06T04:35:48.454Z,31.70
2023-03-06T04:38:20.272Z,25.23
2023-03-06T04:40:49.183Z,16.60
2023-03-06T04:43:16.414Z,19.95
2023-03-06T04:45:43.655Z,23.65
2023-03-06T04:48:14.874Z,20.15
2023-03-06T04:50:42.028Z,17.98
2023-03-06T04:53:10.405Z,26.17
2023-03-06T04:55:37.914Z,25.60
2023-03-06T04:58:05.162Z,20.55
2023-03-06T05:00:32.380Z,29.95
2023-03-06T05:03:01.173Z,20.55
2023-03-06T05:05:28.826Z,21.40
2023-03-06T05:07:56.470Z,26.25
2023-03-06T05:10:23.867Z,16.00
2023-03-06T05:12:51.008Z,19.08
2023-03-06T05:15:18.384Z,18.20
2023-03-06T05:17:49.100Z,14.85
2023-03-06T05:20:17.122Z,23.48
2023-03-06T05:22:44.480Z,15.80
2023-03-06T05:25:11.987Z,42.10
2023-03-06T05:27:39.355Z,24.23
2023-03-06T05:30:09.473Z,38.22
2023-03-06T05:32:36.687Z,31.00
2023-03-06T05:35:05.275Z,28.33
2023-03-06T05:37:32.954Z,36.08
2023-03-06T05:40:00.370Z,22.90
2023-03-06T05:42:30.569Z,24.65
2023-03-06T05:44:57.754Z,22.50
2023-03-06T05:47:24.930Z,15.25
2023-03-06T05:49:52.033Z,28.25
2023-03-06T05:52:19.318Z,78.22
2023-03-06T05:54:51.738Z,32.75
2023-03-06T05:57:21.931Z,30.13
2023-03-06T05:59:50.067Z,30.13
2023-03-06T06:02:18.760Z,36.50
2023-03-06T06:04:46.024Z,52.67
2023-03-06T06:07:15.594Z,37.15
2023-03-06T06:09:45.018Z,44.20
2023-03-06T06:12:13.376Z,48.95
2023-03-06T06:14:40.680Z,49.88
2023-03-06T06:17:07.971Z,47.13
2023-03-06T06:19:35.172Z,48.78
2023-03-06T06:22:03.302Z,42.70
2023-03-06T06:24:31.490Z,43.27
2023-03-06T06:27:01.469Z,36.30
2023-03-06T06:29:30.963Z,33.05
2023-03-06T06:31:58.624Z,28.55
2023-03-06T06:34:27.565Z,41.72
2023-03-06T06:39:23.890Z,34.22
2023-03-06T06:44:39.841Z,18.52
2023-03-06T06:47:22.208Z,24.52
2023-03-06T06:49:55.244Z,19.98
2023-03-06T06:52:24.229Z,14.88
2023-03-06T06:54:52.519Z,14.13
2023-03-06T06:57:20.114Z,11.95
2023-03-06T06:59:47.288Z,13.43
2023-03-06T07:02:15.948Z,14.30
2023-03-06T07:05:00.374Z,28.83
2023-03-06T07:07:31.112Z,19.83
2023-03-06T07:09:58.363Z,17.23
2023-03-06T07:12:25.697Z,14.02
2023-03-06T07:14:52.890Z,12.75
2023-03-06T07:17:20.012Z,21.83
2023-03-06T07:19:48.110Z,15.00
2023-03-06T07:22:15.499Z,15.52
2023-03-06T07:24:42.756Z,15.85
2023-03-06T07:27:09.929Z,13.75
2023-03-06T07:29:37.167Z,10.65
2023-03-06T07:32:04.524Z,16.23
2023-03-06T07:34:31.738Z,20.17
2023-03-06T07:36:59.385Z,15.93
2023-03-06T07:39:27.551Z,19.30
2023-03-06T07:41:54.760Z,14.55
2023-03-06T07:44:22.193Z,19.05
2023-03-06T07:46:49.394Z,16.38
2023-03-06T07:49:17.469Z,10.25
2023-03-06T07:51:44.680Z,15.48
2023-03-06T07:54:12.046Z,20.42
2023-03-06T07:56:39.231Z,25.63
2023-03-06T07:59:06.433Z,31.80
2023-03-06T08:01:33.641Z,24.17
2023-03-06T08:04:01.426Z,15.52
2023-03-06T08:06:28.671Z,20.60
2023-03-06T08:08:56.832Z,14.38
2023-03-06T08:11:27.787Z,12.77
2023-03-06T08:13:55.296Z,11.43
2023-03-06T08:16:29.646Z,23.48
2023-03-06T08:18:57.146Z,21.63
2023-03-06T08:21:27.281Z,18.70
2023-03-06T08:23:54.935Z,22.27
2023-03-06T08:26:26.045Z,20.58
2023-03-06T08:28:56.962Z,20.00
2023-03-06T08:31:33.419Z,12.50
2023-03-06T08:34:04.626Z,20.48
2023-03-06T08:36:32.226Z,14.60
2023-03-06T08:38:59.546Z,8.63
2023-03-06T08:41:27.915Z,13.95
2023-03-06T08:43:55.678Z,20.67
2023-03-06T08:46:25.467Z,24.15
2023-03-06T08:48:52.780Z,20.05
2023-03-06T08:51:21.512Z,21.30
2023-03-06T08:53:50.311Z,18.98
2023-03-06T08:56:23.374Z,20.73
2023-03-06T08:58:51.812Z,15.82
2023-03-06T09:01:29.852Z,38.38
2023-03-06T09:04:00.185Z,28.48
2023-03-06T09:06:31.285Z,25.85
2023-03-06T09:08:59.329Z,18.63
2023-03-06T09:11:27.366Z,17.70
2023-03-06T09:13:55.284Z,31.45
2023-03-06T09:16:23.200Z,15.50
2023-03-06T09:18:52.361Z,17.67
2023-03-06T09:21:24.457Z,17.85
2023-03-06T09:23:51.954Z,22.25
2023-03-06T09:26:19.603Z,28.83
2023-03-06T09:28:46.995Z,27.30
2023-03-06T09:31:18.386Z,18.52
2023-03-06T09:33:46.900Z,20.77
2023-03-06T09:36:18.311Z,19.40
2023-03-06T09:38:47.604Z,26.73
2023-03-06T09:41:31.469Z,14.38
2023-03-06T09:44:08.436Z,15.75
2023-03-06T09:46:59.611Z,24.98
2023-03-06T09:49:48.382Z,68.95
2023-03-06T09:52:21.327Z,16.73
2023-03-06T09:55:15.055Z,21.05
2023-03-06T09:57:54.144Z,18.38
2023-03-06T10:00:53.779Z,20.63
2023-03-06T10:03:53.881Z,14.75
2023-03-06T10:06:39.958Z,15.48
2023-03-06T10:09:43.942Z,12.93
2023-03-06T10:12:24.993Z,13.05
2023-03-06T10:15:05.259Z,19.65
2023-03-06T10:17:42.507Z,18.65
2023-03-06T10:20:39.043Z,36.25
2023-03-06T10:23:27.977Z,26.92
2023-03-06T10:26:06.564Z,12.63
2023-03-06T10:28:46.724Z,16.37
2023-03-06T10:31:18.046Z,17.95
2023-03-06T10:33:57.392Z,11.55
2023-03-06T10:36:28.096Z,15.20
2023-03-06T10:38:59.381Z,17.20
2023-03-06T10:41:35.149Z,10.77
2023-03-06T10:44:06.022Z,21.42
2023-03-06T10:46:46.160Z,23.98
2023-03-06T10:49:35.508Z,17.75
2023-03-06T10:52:18.869Z,13.80
2023-03-06T10:54:47.626Z,17.60
2023-03-06T10:57:27.031Z,24.30
2023-03-06T11:00:04.668Z,15.38
2023-03-06T11:02:36.162Z,12.95
2023-03-06T11:05:04.230Z,14.57
2023-03-06T11:07:37.120Z,13.68
2023-03-06T11:10:18.434Z,23.52
2023-03-06T11:13:18.764Z,30.50
2023-03-06T11:16:25.795Z,13.95
2023-03-06T11:19:04.940Z,10.57
2023-03-06T11:21:35.146Z,15.02
2023-03-06T11:24:39.977Z,12.15
2023-03-06T11:27:24.046Z,10.40
2023-03-06T11:29:54.228Z,9.88
2023-03-06T11:32:49.809Z,13.77
2023-03-06T11:35:34.459Z,23.13
2023-03-06T11:38:51.871Z,14.00
2023-03-06T11:41:53.292Z,20.77
2023-03-06T11:44:42.942Z,14.02
2023-03-06T11:47:45.498Z,14.20
2023-03-06T11:50:27.113Z,19.67
2023-03-06T11:53:10.880Z,11.93
2023-03-06T11:56:31.794Z,13.93
2023-03-06T11:59:29.264Z,14.35
2023-03-06T12:02:17.713Z,13.57
2023-03-06T12:04:56.837Z,9.80
2023-03-06T12:07:40.472Z,11.88
2023-03-06T12:10:33.629Z,10.93
2023-03-06T12:13:18.840Z,13.40
2023-03-06T12:15:57.944Z,9.63
2023-03-06T12:18:48.432Z,15.20
2023-03-06T12:21:31.996Z,26.83
2023-03-06T12:24:29.908Z,12.43
2023-03-06T12:27:30.787Z,16.30
2023-03-06T12:30:38.669Z,17.98
2023-03-06T12:33:24.216Z,9.73
2023-03-06T12:36:21.267Z,26.45
2023-03-06T12:39:22.581Z,11.00
2023-03-06T12:42:23.460Z,10.00
2023-03-06T12:45:36.369Z,10.73
2023-03-06T12:48:20.329Z,15.30
2023-03-06T12:50:48.304Z,14.77
2023-03-06T12:53:30.758Z,10.75
2023-03-06T12:56:01.717Z,43.80
2023-03-06T12:58:28.934Z,16.85
2023-03-06T13:01:19.366Z,9.30
2023-03-06T13:04:21.952Z,16.10
2023-03-06T13:07:28.489Z,23.42
2023-03-06T13:10:14.947Z,8.50
2023-03-06T13:13:33.255Z,13.23
2023-03-06T13:16:03.631Z,22.67
2023-03-06T13:18:34.145Z,10.18
2023-03-06T13:21:03.887Z,18.90
2023-03-06T13:23:37.684Z,10.57
2023-03-06T13:26:10.809Z,14.80
2023-03-06T13:28:50.082Z,11.48
2023-03-06T13:31:27.806Z,14.02
2023-03-06T13:34:39.101Z,15.05
2023-03-06T13:37:24.298Z,10.85
2023-03-06T13:40:13.606Z,9.48
2023-03-06T13:42:43.865Z,22.70
2023-03-06T13:45:29.453Z,10.75
2023-03-06T13:48:24.487Z,19.35
2023-03-06T13:50:48.388Z,13.80
2023-03-06T13:54:06.177Z,12.63
2023-03-06T13:57:22.752Z,12.82
2023-03-06T14:00:26.847Z,13.20
2023-03-06T14:03:08.932Z,28.95
2023-03-06T14:05:50.954Z,13.98
2023-03-06T14:08:44.584Z,13.35
2023-03-06T14:11:21.086Z,9.00
2023-03-06T14:13:56.289Z,26.35
2023-03-06T14:16:40.622Z,13.07
2023-03-06T14:19:18.252Z,10.45
2023-03-06T14:21:54.081Z,9.90
2023-03-06T14:24:54.733Z,14.25
2023-03-06T14:27:48.558Z,14.02
2023-03-06T14:30:23.620Z,26.33
2023-03-06T14:32:54.578Z,11.45
2023-03-06T14:35:31.607Z,10.32
2023-03-06T14:38:05.744Z,14.20
2023-03-06T14:40:51.909Z,11.90
2023-03-06T14:43:27.383Z,13.40
2023-03-06T14:46:07.229Z,14.13
2023-03-06T14:48:45.161Z,12.32
2023-03-06T14:51:26.960Z,10.10
2023-03-06T14:54:00.150Z,17.67
2023-03-06T14:56:27.882Z,13.02
2023-03-06T14:59:03.391Z,11.48
2023-03-06T15:01:39.519Z,14.43
2023-03-06T15:04:28.460Z,13.07
2023-03-06T15:06:57.691Z,15.00
2023-03-06T15:09:32.202Z,16.48
2023-03-06T15:12:08.206Z,16.50
2023-03-06T15:14:47.639Z,12.15
2023-03-06T15:19:48.054Z,9.55
2023-03-06T15:22:34.481Z,14.50
2023-03-06T15:25:23.238Z,14.35
2023-03-06T15:27:56.703Z,23.73
2023-03-06T15:30:34.248Z,16.10
2023-03-06T15:33:23.712Z,20.52
2023-03-06T15:38:45.771Z,10.50
2023-03-06T15:41:37.606Z,14.10
2023-03-06T15:44:15.001Z,15.98
2023-03-06T15:46:42.359Z,11.77
2023-03-06T15:49:16.540Z,16.33
2023-03-06T15:51:43.894Z,18.15
2023-03-06T15:54:12.553Z,23.23
2023-03-06T15:56:42.980Z,16.25
2023-03-06T15:59:26.083Z,15.10
2023-03-06T16:01:54.141Z,19.48
2023-03-06T16:04:21.413Z,12.30
2023-03-06T16:06:48.709Z,25.30
2023-03-06T16:09:15.940Z,26.75
2023-03-06T16:11:44.355Z,20.08
2023-03-06T16:14:23.133Z,22.10
2023-03-06T16:16:54.297Z,19.65
2023-03-06T16:19:27.428Z,16.67
2023-03-06T16:21:56.272Z,12.13
2023-03-06T16:24:25.461Z,15.27
2023-03-06T16:26:54.345Z,15.20
2023-03-06T16:29:25.054Z,17.20
2023-03-06T16:31:54.675Z,17.65
2023-03-06T16:34:22.517Z,19.15
2023-03-06T16:36:50.387Z,20.00
2023-03-06T16:39:21.318Z,13.77
2023-03-06T16:41:49.667Z,16.50
2023-03-06T16:44:16.987Z,17.73
2023-03-06T16:46:47.376Z,13.55
2023-03-06T16:49:24.425Z,18.30
2023-03-06T16:51:53.028Z,15.98
2023-03-06T16:54:22.625Z,10.60
2023-03-06T16:56:49.882Z,12.80
2023-03-06T16:59:17.131Z,13.95
2023-03-06T17:01:44.333Z,18.58
2023-03-06T17:04:11.912Z,14.68
2023-03-06T17:06:40.860Z,11.40
2023-03-06T17:09:10.156Z,24.27
2023-03-06T17:11:42.728Z,12.23
2023-03-06T17:14:10.042Z,18.40
2023-03-06T17:16:39.697Z,17.20
2023-03-06T17:19:07.741Z,21.25
2023-03-06T17:21:37.678Z,17.05
2023-03-06T17:24:05.727Z,16.85
2023-03-06T17:26:32.914Z,16.85
2023-03-06T17:29:00.211Z,16.98
2023-03-06T17:31:28.330Z,22.13
2023-03-06T17:33:59.839Z,23.50
2023-03-06T17:36:29.333Z,22.48
2023-03-06T17:41:28.710Z,22.98
2023-03-06T17:43:57.697Z,26.70
2023-03-06T17:46:25.522Z,37.88
2023-03-06T17:48:53.815Z,20.65
2023-03-06T17:51:21.203Z,31.27
2023-03-06T17:53:48.832Z,70.45
2023-03-06T17:56:16.130Z,76.88
2023-03-06T17:58:43.623Z,61.15
2023-03-06T18:01:14.517Z,40.67
2023-03-06T18:03:47.603Z,27.70
2023-03-06T18:06:17.088Z,31.52
2023-03-06T18:11:13.480Z,32.13
2023-03-06T18:13:43.910Z,41.05
2023-03-06T18:16:14.573Z,52.33
2023-03-06T18:18:41.842Z,45.00
2023-03-06T18:21:13.388Z,45.28
2023-03-06T18:23:40.907Z,61.60
2023-03-06T18:26:24.581Z,54.63
2023-03-06T18:28:55.289Z,42.08
2023-03-06T18:31:44.171Z,42.65
2023-03-06T18:34:14.230Z,55.50
2023-03-06T18:36:42.976Z,27.27
2023-03-06T18:39:12.873Z,35.08
2023-03-06T18:41:40.969Z,49.70
2023-03-06T18:44:08.485Z,40.58
2023-03-06T18:46:37.778Z,55.67
2023-03-06T18:49:05.484Z,48.88
2023-03-06T18:51:33.621Z,66.68
2023-03-06T18:54:03.225Z,65.40
2023-03-06T18:56:31.102Z,78.72
2023-03-06T18:59:05.451Z,69.78
2023-03-06T19:01:33.636Z,62.83
2023-03-06T19:04:03.498Z,72.25
2023-03-06T19:06:31.115Z,92.20
2023-03-06T19:09:00.826Z,86.20
2023-03-06T19:11:29.435Z,76.68
2023-03-06T19:13:57.480Z,78.28
2023-03-06T19:16:28.171Z,78.03
2023-03-06T19:18:56.765Z,82.13
2023-03-06T19:21:27.369Z,79.63
2023-03-06T19:23:56.156Z,81.40
2023-03-06T19:26:24.455Z,55.55
2023-03-06T19:28:51.952Z,71.85
2023-03-06T19:31:26.673Z,84.45
2023-03-06T19:33:56.863Z,75.47
2023-03-06T19:36:32.473Z,81.90
2023-03-06T19:39:04.479Z,69.93
2023-03-06T19:41:32.856Z,77.90
2023-03-06T19:44:02.733Z,50.53
2023-03-06T19:46:31.241Z,50.05
2023-03-06T19:49:03.156Z,52.67
2023-03-06T19:51:30.783Z,60.78
2023-03-06T19:53:58.135Z,46.80
2023-03-06T19:56:28.424Z,53.03
2023-03-06T19:58:56.308Z,61.67
2023-03-06T20:01:26.402Z,64.85
2023-03-06T20:03:58.682Z,77.53
2023-03-06T20:06:30.733Z,70.40
2023-03-06T20:08:58.224Z,84.68
2023-03-06T20:11:31.911Z,77.68
2023-03-06T20:14:02.049Z,70.15
2023-03-06T20:16:30.677Z,70.15
2023-03-06T20:19:00.285Z,64.80
2023-03-06T20:23:57.847Z,97.95
2023-03-06T20:26:27.967Z,65.32
2023-03-06T20:28:56.142Z,68.03
2023-03-06T20:31:29.366Z,59.08
2023-03-06T20:33:59.512Z,69.57
2023-03-06T20:36:35.352Z,61.42
2023-03-06T20:39:08.324Z,69.68
2023-03-06T20:41:35.690Z,50.08
2023-03-06T20:44:06.185Z,51.53
2023-03-06T20:46:34.938Z,39.95
2023-03-06T20:49:02.884Z,50.15
2023-03-06T20:51:35.489Z,53.45
2023-03-06T20:54:03.575Z,54.55
2023-03-06T20:56:34.153Z,58.85
2023-03-06T20:59:02.186Z,49.55
2023-03-06T21:01:33.443Z,51.58
2023-03-06T21:04:04.426Z,45.65
2023-03-06T21:06:32.914Z,57.50
2023-03-06T21:09:01.322Z,53.85
2023-03-06T21:11:29.292Z,67.20
2023-03-06T21:13:56.661Z,69.03
2023-03-06T21:16:26.221Z,65.13
2023-03-06T21:21:27.997Z,60.17
2023-03-06T21:23:55.525Z,62.78
2023-03-06T21:26:26.768Z,115.55
2023-03-06T21:28:57.459Z,78.22
2023-03-06T21:31:25.351Z,75.70
2023-03-06T21:33:52.491Z,67.50
2023-03-06T21:36:21.379Z,73.72
2023-03-06T21:38:50.436Z,70.18
2023-03-06T21:41:24.056Z,74.43
2023-03-06T21:44:00.293Z,64.18
2023-03-06T21:46:28.566Z,60.65
2023-03-06T21:48:57.919Z,60.28
2023-03-06T21:51:26.002Z,56.20
2023-03-06T21:53:54.832Z,63.63
2023-03-06T21:56:24.850Z,62.85
2023-03-06T21:58:52.560Z,71.57
2023-03-06T22:01:26.690Z,64.50
2023-03-06T22:03:54.894Z,59.58
2023-03-06T22:06:25.296Z,47.00
2023-03-06T22:08:54.979Z,59.85
2023-03-06T22:11:23.997Z,57.28
2023-03-06T22:13:55.401Z,60.80
2023-03-06T22:16:23.299Z,47.28
2023-03-06T22:18:51.455Z,63.15
2023-03-06T22:21:21.383Z,53.22
2023-03-06T22:23:50.956Z,69.00
2023-03-06T22:26:18.913Z,56.22
2023-03-06T22:28:46.826Z,61.17
2023-03-06T22:31:23.461Z,58.30
2023-03-06T22:33:56.409Z,63.58
2023-03-06T22:36:24.560Z,57.30
2023-03-06T22:38:58.494Z,60.85
2023-03-06T22:41:26.869Z,67.40
2023-03-06T22:44:00.111Z,61.03
2023-03-06T22:46:28.494Z,73.85
2023-03-06T22:48:59.897Z,71.57
2023-03-06T22:51:29.019Z,60.65
2023-03-06T22:53:56.434Z,71.22
2023-03-06T22:56:24.360Z,64.63
2023-03-06T22:58:52.367Z,53.95
2023-03-06T23:01:24.456Z,60.78
2023-03-06T23:03:54.934Z,84.68
2023-03-06T23:06:35.239Z,74.90
2023-03-06T23:09:17.044Z,66.20
2023-03-06T23:12:03.112Z,191.18
2023-03-06T23:14:50.509Z,111.78
2023-03-06T23:17:36.575Z,71.22
2023-03-06T23:20:22.617Z,63.38
2023-03-06T23:23:08.894Z,56.42
2023-03-06T23:25:43.337Z,63.45
2023-03-06T23:28:11.306Z,55.92
2023-03-06T23:30:39.547Z,64.78
2023-03-06T23:33:07.910Z,54.97
2023-03-06T23:35:38.509Z,62.38
2023-03-06T23:38:06.033Z,55.50
2023-03-06T23:40:34.219Z,62.83
2023-03-06T23:43:02.351Z,62.10
2023-03-06T23:45:29.902Z,56.10
2023-03-06T23:47:57.535Z,45.33
2023-03-06T23:50:25.739Z,51.65
2023-03-06T23:52:54.807Z,59.78
2023-03-06T23:55:22.173Z,71.05
2023-03-06T23:57:49.235Z,64.68
